sensor_id;sensor_type;location;lat;lon;timestamp;temperature;humidity
40996;DHT22;26723;57.478;12.066;2023-02-28T00:00:22;-0.70;99.90
40996;DHT22;26723;57.478;12.066;2023-02-28T00:03:30;-0.70;99.90
40996;DHT22;26723;57.478;12.066;2023-02-28T00:06:44;-0.70;99.90
40996;DHT22;26723;57.478;12.066;2023-02-28T00:09:53;-0.60;99.90
40996;DHT22;26723;57.478;12.066;2023-02-28T00:13:03;-0.50;99.90
40996;DHT22;26723;57.478;12.066;2023-02-28T00:16:14;-0.60;99.90
40996;DHT22;26723;57.478;12.066;2023-02-28T00:19:22;-0.60;99.90
40996;DHT22;26723;57.478;12.066;2023-02-28T00:22:32;-0.70;99.90
40996;DHT22;26723;57.478;12.066;2023-02-28T00:25:42;-0.70;99.90
40996;DHT22;26723;57.478;12.066;2023-02-28T00:28:51;-0.70;99.90
40996;DHT22;26723;57.478;12.066;2023-02-28T00:32:02;-0.90;99.90
40996;DHT22;26723;57.478;12.066;2023-02-28T00:35:11;-1.00;99.90
40996;DHT22;26723;57.478;12.066;2023-02-28T00:38:22;-1.00;99.90
40996;DHT22;26723;57.478;12.066;2023-02-28T00:41:30;-0.90;99.90
40996;DHT22;26723;57.478;12.066;2023-02-28T00:44:39;-1.00;99.90
40996;DHT22;26723;57.478;12.066;2023-02-28T00:47:47;-1.10;99.90
40996;DHT22;26723;57.478;12.066;2023-02-28T00:50:57;-1.10;99.90
40996;DHT22;26723;57.478;12.066;2023-02-28T00:54:07;-1.00;99.90
40996;DHT22;26723;57.478;12.066;2023-02-28T00:57:16;-1.00;99.90
40996;DHT22;26723;57.478;12.066;2023-02-28T01:00:24;-1.00;99.90
40996;DHT22;26723;57.478;12.066;2023-02-28T01:03:33;-1.00;99.90
40996;DHT22;26723;57.478;12.066;2023-02-28T01:06:42;-1.20;99.90
40996;DHT22;26723;57.478;12.066;2023-02-28T01:09:51;-1.30;99.90
40996;DHT22;26723;57.478;12.066;2023-02-28T01:13:00;-1.30;99.90
40996;DHT22;26723;57.478;12.066;2023-02-28T01:16:08;-1.30;99.90
40996;DHT22;26723;57.478;12.066;2023-02-28T01:19:17;-1.30;99.90
40996;DHT22;26723;57.478;12.066;2023-02-28T01:22:26;-1.20;99.90
40996;DHT22;26723;57.478;12.066;2023-02-28T01:25:36;-1.20;99.90
40996;DHT22;26723;57.478;12.066;2023-02-28T01:28:45;-1.20;99.90
40996;DHT22;26723;57.478;12.066;2023-02-28T01:31:53;-1.20;99.90
40996;DHT22;26723;57.478;12.066;2023-02-28T01:35:02;-1.20;99.90
40996;DHT22;26723;57.478;12.066;2023-02-28T01:38:10;-1.20;99.90
40996;DHT22;26723;57.478;12.066;2023-02-28T01:41:32;-1.30;99.90
40996;DHT22;26723;57.478;12.066;2023-02-28T01:45:01;-1.30;99.90
40996;DHT22;26723;57.478;12.066;2023-02-28T01:48:10;-1.40;99.90
40996;DHT22;26723;57.478;12.066;2023-02-28T01:51:22;-1.50;99.90
40996;DHT22;26723;57.478;12.066;2023-02-28T01:54:35;-1.60;99.90
40996;DHT22;26723;57.478;12.066;2023-02-28T01:57:48;-1.70;99.90
40996;DHT22;26723;57.478;12.066;2023-02-28T02:00:58;-1.70;99.90
40996;DHT22;26723;57.478;12.066;2023-02-28T02:04:06;-1.70;99.90
40996;DHT22;26723;57.478;12.066;2023-02-28T02:07:15;-1.70;99.90
40996;DHT22;26723;57.478;12.066;2023-02-28T02:10:29;-1.60;99.90
40996;DHT22;26723;57.478;12.066;2023-02-28T02:17:24;-1.60;99.90
40996;DHT22;26723;57.478;12.066;2023-02-28T02:31:51;-1.70;99.90
40996;DHT22;26723;57.478;12.066;2023-02-28T02:35:12;-1.70;99.90
40996;DHT22;26723;57.478;12.066;2023-02-28T02:38:30;-1.50;99.90
40996;DHT22;26723;57.478;12.066;2023-02-28T02:41:41;-1.60;99.90
40996;DHT22;26723;57.478;12.066;2023-02-28T02:44:59;-1.70;99.90
40996;DHT22;26723;57.478;12.066;2023-02-28T02:48:11;-1.80;99.90
40996;DHT22;26723;57.478;12.066;2023-02-28T02:51:24;-1.80;99.90
40996;DHT22;26723;57.478;12.066;2023-02-28T02:54:36;-1.70;99.90
40996;DHT22;26723;57.478;12.066;2023-02-28T02:57:47;-1.60;99.90
40996;DHT22;26723;57.478;12.066;2023-02-28T03:00:59;-1.80;99.90
40996;DHT22;26723;57.478;12.066;2023-02-28T03:04:16;-1.90;99.90
40996;DHT22;26723;57.478;12.066;2023-02-28T03:07:28;-1.90;99.90
40996;DHT22;26723;57.478;12.066;2023-02-28T03:10:38;-2.00;99.90
40996;DHT22;26723;57.478;12.066;2023-02-28T03:14:10;-2.00;99.90
40996;DHT22;26723;57.478;12.066;2023-02-28T03:17:34;-2.00;99.90
40996;DHT22;26723;57.478;12.066;2023-02-28T03:20:49;-2.00;99.90
40996;DHT22;26723;57.478;12.066;2023-02-28T03:24:04;-2.10;99.90
40996;DHT22;26723;57.478;12.066;2023-02-28T03:27:17;-2.10;99.90
40996;DHT22;26723;57.478;12.066;2023-02-28T03:30:31;-2.10;99.90
40996;DHT22;26723;57.478;12.066;2023-02-28T03:33:44;-2.10;99.90
40996;DHT22;26723;57.478;12.066;2023-02-28T03:37:05;-2.00;99.90
40996;DHT22;26723;57.478;12.066;2023-02-28T03:40:19;-2.00;99.90
40996;DHT22;26723;57.478;12.066;2023-02-28T03:43:33;-1.90;99.90
40996;DHT22;26723;57.478;12.066;2023-02-28T03:46:48;-1.90;99.90
40996;DHT22;26723;57.478;12.066;2023-02-28T03:50:01;-2.00;99.90
40996;DHT22;26723;57.478;12.066;2023-02-28T03:53:16;-2.10;99.90
40996;DHT22;26723;57.478;12.066;2023-02-28T03:56:31;-2.20;99.90
40996;DHT22;26723;57.478;12.066;2023-02-28T03:59:43;-2.20;99.90
40996;DHT22;26723;57.478;12.066;2023-02-28T04:02:53;-2.20;99.90
40996;DHT22;26723;57.478;12.066;2023-02-28T04:06:02;-2.10;99.90
40996;DHT22;26723;57.478;12.066;2023-02-28T04:09:13;-2.20;99.90
40996;DHT22;26723;57.478;12.066;2023-02-28T04:12:23;-2.30;99.90
40996;DHT22;26723;57.478;12.066;2023-02-28T04:15:31;-2.30;99.90
40996;DHT22;26723;57.478;12.066;2023-02-28T04:18:40;-2.10;99.90
40996;DHT22;26723;57.478;12.066;2023-02-28T04:21:52;-2.10;99.90
40996;DHT22;26723;57.478;12.066;2023-02-28T04:25:00;-2.20;99.90
40996;DHT22;26723;57.478;12.066;2023-02-28T04:28:10;-2.10;99.90
40996;DHT22;26723;57.478;12.066;2023-02-28T04:31:19;-2.10;99.90
40996;DHT22;26723;57.478;12.066;2023-02-28T04:34:29;-2.20;99.90
40996;DHT22;26723;57.478;12.066;2023-02-28T04:37:37;-2.20;99.90
40996;DHT22;26723;57.478;12.066;2023-02-28T04:40:46;-2.20;99.90
40996;DHT22;26723;57.478;12.066;2023-02-28T04:43:56;-2.20;99.90
40996;DHT22;26723;57.478;12.066;2023-02-28T04:47:04;-2.20;99.90
40996;DHT22;26723;57.478;12.066;2023-02-28T04:50:13;-2.10;99.90
40996;DHT22;26723;57.478;12.066;2023-02-28T04:53:21;-2.10;99.90
40996;DHT22;26723;57.478;12.066;2023-02-28T04:56:30;-2.10;99.90
40996;DHT22;26723;57.478;12.066;2023-02-28T04:59:39;-2.20;99.90
40996;DHT22;26723;57.478;12.066;2023-02-28T05:02:48;-2.30;99.90
40996;DHT22;26723;57.478;12.066;2023-02-28T05:05:56;-2.40;99.90
40996;DHT22;26723;57.478;12.066;2023-02-28T05:09:05;-2.40;99.90
40996;DHT22;26723;57.478;12.066;2023-02-28T05:12:13;-2.50;99.90
40996;DHT22;26723;57.478;12.066;2023-02-28T05:15:23;-2.50;99.90
40996;DHT22;26723;57.478;12.066;2023-02-28T05:18:31;-2.40;99.90
40996;DHT22;26723;57.478;12.066;2023-02-28T05:21:41;-2.70;99.90
40996;DHT22;26723;57.478;12.066;2023-02-28T05:24:56;-2.80;99.90
40996;DHT22;26723;57.478;12.066;2023-02-28T05:28:04;-2.70;99.90
40996;DHT22;26723;57.478;12.066;2023-02-28T05:31:14;-2.70;99.90
40996;DHT22;26723;57.478;12.066;2023-02-28T05:34:23;-2.80;99.90
40996;DHT22;26723;57.478;12.066;2023-02-28T05:37:31;-2.80;99.90
40996;DHT22;26723;57.478;12.066;2023-02-28T05:40:39;-2.60;99.90
40996;DHT22;26723;57.478;12.066;2023-02-28T05:43:48;-2.60;99.90
40996;DHT22;26723;57.478;12.066;2023-02-28T05:46:58;-2.70;99.90
40996;DHT22;26723;57.478;12.066;2023-02-28T05:50:08;-2.80;99.90
40996;DHT22;26723;57.478;12.066;2023-02-28T05:53:17;-2.80;99.90
40996;DHT22;26723;57.478;12.066;2023-02-28T05:56:25;-2.80;99.90
40996;DHT22;26723;57.478;12.066;2023-02-28T05:59:34;-2.80;99.90
40996;DHT22;26723;57.478;12.066;2023-02-28T06:02:48;-2.80;99.90
40996;DHT22;26723;57.478;12.066;2023-02-28T06:05:56;-2.80;99.90
40996;DHT22;26723;57.478;12.066;2023-02-28T06:09:05;-2.80;99.90
40996;DHT22;26723;57.478;12.066;2023-02-28T06:12:13;-2.80;99.90
40996;DHT22;26723;57.478;12.066;2023-02-28T06:15:22;-2.80;99.90
40996;DHT22;26723;57.478;12.066;2023-02-28T06:18:32;-2.80;99.90
40996;DHT22;26723;57.478;12.066;2023-02-28T06:21:40;-2.70;99.90
40996;DHT22;26723;57.478;12.066;2023-02-28T06:24:49;-2.60;99.90
40996;DHT22;26723;57.478;12.066;2023-02-28T06:27:57;-2.60;99.90
40996;DHT22;26723;57.478;12.066;2023-02-28T06:31:07;-2.60;99.90
40996;DHT22;26723;57.478;12.066;2023-02-28T06:34:17;-2.50;99.90
40996;DHT22;26723;57.478;12.066;2023-02-28T06:37:26;-2.30;99.90
40996;DHT22;26723;57.478;12.066;2023-02-28T06:40:34;-2.20;99.90
40996;DHT22;26723;57.478;12.066;2023-02-28T06:43:43;-2.20;99.90
40996;DHT22;26723;57.478;12.066;2023-02-28T06:46:51;-2.20;99.90
40996;DHT22;26723;57.478;12.066;2023-02-28T06:50:01;-1.50;99.90
40996;DHT22;26723;57.478;12.066;2023-02-28T06:53:10;1.30;99.90
40996;DHT22;26723;57.478;12.066;2023-02-28T06:56:19;2.40;99.90
40996;DHT22;26723;57.478;12.066;2023-02-28T06:59:28;2.30;99.90
40996;DHT22;26723;57.478;12.066;2023-02-28T07:02:37;3.00;99.90
40996;DHT22;26723;57.478;12.066;2023-02-28T07:05:47;4.80;99.90
40996;DHT22;26723;57.478;12.066;2023-02-28T07:08:55;6.20;99.90
40996;DHT22;26723;57.478;12.066;2023-02-28T07:12:04;7.30;99.90
40996;DHT22;26723;57.478;12.066;2023-02-28T07:15:13;8.00;99.90
40996;DHT22;26723;57.478;12.066;2023-02-28T07:18:22;8.70;99.90
40996;DHT22;26723;57.478;12.066;2023-02-28T07:21:32;9.00;99.90
40996;DHT22;26723;57.478;12.066;2023-02-28T07:24:40;9.60;99.90
40996;DHT22;26723;57.478;12.066;2023-02-28T07:27:48;10.00;99.90
40996;DHT22;26723;57.478;12.066;2023-02-28T07:30:57;10.90;99.90
40996;DHT22;26723;57.478;12.066;2023-02-28T07:34:05;11.10;99.90
40996;DHT22;26723;57.478;12.066;2023-02-28T07:37:15;11.60;99.90
40996;DHT22;26723;57.478;12.066;2023-02-28T07:40:23;11.40;99.90
40996;DHT22;26723;57.478;12.066;2023-02-28T07:43:32;11.00;99.90
40996;DHT22;26723;57.478;12.066;2023-02-28T07:46:41;10.90;99.90
40996;DHT22;26723;57.478;12.066;2023-02-28T07:49:49;11.20;99.90
40996;DHT22;26723;57.478;12.066;2023-02-28T07:52:59;12.30;99.90
40996;DHT22;26723;57.478;12.066;2023-02-28T07:56:07;13.10;99.90
40996;DHT22;26723;57.478;12.066;2023-02-28T07:59:17;13.30;99.90
40996;DHT22;26723;57.478;12.066;2023-02-28T08:02:26;13.00;99.90
40996;DHT22;26723;57.478;12.066;2023-02-28T08:05:38;12.90;99.90
40996;DHT22;26723;57.478;12.066;2023-02-28T08:08:48;12.40;99.90
40996;DHT22;26723;57.478;12.066;2023-02-28T08:11:57;11.50;99.90
40996;DHT22;26723;57.478;12.066;2023-02-28T08:15:06;10.30;99.90
40996;DHT22;26723;57.478;12.066;2023-02-28T08:18:15;9.10;99.90
40996;DHT22;26723;57.478;12.066;2023-02-28T08:21:23;7.50;99.90
40996;DHT22;26723;57.478;12.066;2023-02-28T08:24:33;7.20;99.90
40996;DHT22;26723;57.478;12.066;2023-02-28T08:27:42;6.70;99.90
40996;DHT22;26723;57.478;12.066;2023-02-28T08:30:50;6.50;99.90
40996;DHT22;26723;57.478;12.066;2023-02-28T08:33:59;7.00;99.90
40996;DHT22;26723;57.478;12.066;2023-02-28T08:37:07;6.40;99.90
40996;DHT22;26723;57.478;12.066;2023-02-28T08:40:17;5.50;99.90
40996;DHT22;26723;57.478;12.066;2023-02-28T08:43:27;4.60;99.90
40996;DHT22;26723;57.478;12.066;2023-02-28T08:46:35;4.00;99.90
40996;DHT22;26723;57.478;12.066;2023-02-28T08:49:44;3.60;99.90
40996;DHT22;26723;57.478;12.066;2023-02-28T08:52:52;3.60;99.90
40996;DHT22;26723;57.478;12.066;2023-02-28T08:56:04;3.40;99.90
40996;DHT22;26723;57.478;12.066;2023-02-28T08:59:12;2.60;99.90
40996;DHT22;26723;57.478;12.066;2023-02-28T09:02:21;2.60;99.90
40996;DHT22;26723;57.478;12.066;2023-02-28T09:05:29;2.70;99.90
40996;DHT22;26723;57.478;12.066;2023-02-28T09:08:39;3.00;99.90
40996;DHT22;26723;57.478;12.066;2023-02-28T09:11:49;2.80;99.90
40996;DHT22;26723;57.478;12.066;2023-02-28T09:14:57;2.90;99.90
40996;DHT22;26723;57.478;12.066;2023-02-28T09:18:06;3.00;99.90
40996;DHT22;26723;57.478;12.066;2023-02-28T09:21:16;2.90;99.90
40996;DHT22;26723;57.478;12.066;2023-02-28T09:24:24;2.90;99.90
40996;DHT22;26723;57.478;12.066;2023-02-28T09:27:34;2.60;99.90
40996;DHT22;26723;57.478;12.066;2023-02-28T09:30:45;2.50;99.90
40996;DHT22;26723;57.478;12.066;2023-02-28T09:33:56;2.50;99.90
40996;DHT22;26723;57.478;12.066;2023-02-28T09:37:05;2.70;99.90
40996;DHT22;26723;57.478;12.066;2023-02-28T09:40:14;2.70;99.90
40996;DHT22;26723;57.478;12.066;2023-02-28T09:43:29;2.70;99.90
40996;DHT22;26723;57.478;12.066;2023-02-28T09:46:40;2.60;99.90
40996;DHT22;26723;57.478;12.066;2023-02-28T09:49:50;2.70;99.90
40996;DHT22;26723;57.478;12.066;2023-02-28T09:52:59;2.80;99.90
40996;DHT22;26723;57.478;12.066;2023-02-28T09:56:11;2.80;99.90
40996;DHT22;26723;57.478;12.066;2023-02-28T09:59:39;2.80;99.90
40996;DHT22;26723;57.478;12.066;2023-02-28T10:02:59;3.00;99.90
40996;DHT22;26723;57.478;12.066;2023-02-28T10:06:14;2.90;99.90
40996;DHT22;26723;57.478;12.066;2023-02-28T10:09:27;2.90;99.90
40996;DHT22;26723;57.478;12.066;2023-02-28T10:12:42;3.00;99.90
40996;DHT22;26723;57.478;12.066;2023-02-28T10:15:56;3.20;99.90
40996;DHT22;26723;57.478;12.066;2023-02-28T10:19:11;3.20;99.90
40996;DHT22;26723;57.478;12.066;2023-02-28T10:22:23;3.30;99.90
40996;DHT22;26723;57.478;12.066;2023-02-28T10:25:36;3.50;99.90
40996;DHT22;26723;57.478;12.066;2023-02-28T10:28:44;3.70;99.90
40996;DHT22;26723;57.478;12.066;2023-02-28T10:32:01;3.70;99.90
40996;DHT22;26723;57.478;12.066;2023-02-28T10:35:16;3.80;99.90
40996;DHT22;26723;57.478;12.066;2023-02-28T10:38:27;3.90;99.90
40996;DHT22;26723;57.478;12.066;2023-02-28T10:41:42;3.80;99.90
40996;DHT22;26723;57.478;12.066;2023-02-28T10:45:06;3.80;99.90
40996;DHT22;26723;57.478;12.066;2023-02-28T10:48:30;4.00;99.90
40996;DHT22;26723;57.478;12.066;2023-02-28T10:51:41;4.10;99.90
40996;DHT22;26723;57.478;12.066;2023-02-28T10:54:49;4.20;99.90
40996;DHT22;26723;57.478;12.066;2023-02-28T10:58:00;4.30;99.90
40996;DHT22;26723;57.478;12.066;2023-02-28T11:01:14;4.70;99.90
40996;DHT22;26723;57.478;12.066;2023-02-28T11:04:35;4.70;99.90
40996;DHT22;26723;57.478;12.066;2023-02-28T11:07:51;4.80;99.90
40996;DHT22;26723;57.478;12.066;2023-02-28T11:11:04;5.10;99.90
40996;DHT22;26723;57.478;12.066;2023-02-28T11:14:19;5.10;99.90
40996;DHT22;26723;57.478;12.066;2023-02-28T11:17:30;5.50;99.90
40996;DHT22;26723;57.478;12.066;2023-02-28T11:20:40;5.40;99.90
40996;DHT22;26723;57.478;12.066;2023-02-28T11:23:51;5.20;99.90
40996;DHT22;26723;57.478;12.066;2023-02-28T11:27:00;5.30;99.90
40996;DHT22;26723;57.478;12.066;2023-02-28T11:30:28;5.40;99.90
40996;DHT22;26723;57.478;12.066;2023-02-28T11:33:42;5.90;99.90
40996;DHT22;26723;57.478;12.066;2023-02-28T11:36:55;6.10;99.90
40996;DHT22;26723;57.478;12.066;2023-02-28T11:40:08;6.40;99.90
40996;DHT22;26723;57.478;12.066;2023-02-28T11:43:28;6.30;99.90
40996;DHT22;26723;57.478;12.066;2023-02-28T11:46:43;6.50;99.90
40996;DHT22;26723;57.478;12.066;2023-02-28T11:50:05;6.30;99.90
40996;DHT22;26723;57.478;12.066;2023-02-28T11:53:24;5.70;99.90
40996;DHT22;26723;57.478;12.066;2023-02-28T11:56:39;5.70;99.90
40996;DHT22;26723;57.478;12.066;2023-02-28T11:59:59;5.70;99.90
40996;DHT22;26723;57.478;12.066;2023-02-28T12:03:29;6.00;99.90
40996;DHT22;26723;57.478;12.066;2023-02-28T12:06:45;6.20;99.90
40996;DHT22;26723;57.478;12.066;2023-02-28T12:10:05;6.00;99.90
40996;DHT22;26723;57.478;12.066;2023-02-28T12:13:21;5.70;99.90
40996;DHT22;26723;57.478;12.066;2023-02-28T12:16:50;5.80;99.90
40996;DHT22;26723;57.478;12.066;2023-02-28T12:20:08;6.00;99.90
40996;DHT22;26723;57.478;12.066;2023-02-28T12:23:53;6.00;99.90
40996;DHT22;26723;57.478;12.066;2023-02-28T12:27:09;5.60;99.90
40996;DHT22;26723;57.478;12.066;2023-02-28T12:30:22;5.60;99.90
40996;DHT22;26723;57.478;12.066;2023-02-28T12:33:35;5.50;99.90
40996;DHT22;26723;57.478;12.066;2023-02-28T12:36:47;5.80;99.90
40996;DHT22;26723;57.478;12.066;2023-02-28T12:40:01;5.90;99.90
40996;DHT22;26723;57.478;12.066;2023-02-28T12:43:15;6.10;99.90
40996;DHT22;26723;57.478;12.066;2023-02-28T12:46:30;6.10;99.90
40996;DHT22;26723;57.478;12.066;2023-02-28T12:49:44;6.10;99.90
40996;DHT22;26723;57.478;12.066;2023-02-28T12:52:59;6.00;99.90
40996;DHT22;26723;57.478;12.066;2023-02-28T12:56:13;6.10;99.90
40996;DHT22;26723;57.478;12.066;2023-02-28T12:59:32;6.00;99.90
40996;DHT22;26723;57.478;12.066;2023-02-28T13:03:10;6.10;99.90
40996;DHT22;26723;57.478;12.066;2023-02-28T13:06:41;6.10;99.90
40996;DHT22;26723;57.478;12.066;2023-02-28T13:09:54;6.10;99.90
40996;DHT22;26723;57.478;12.066;2023-02-28T13:13:03;6.50;99.90
40996;DHT22;26723;57.478;12.066;2023-02-28T13:16:13;6.60;99.90
40996;DHT22;26723;57.478;12.066;2023-02-28T13:19:22;6.70;99.90
40996;DHT22;26723;57.478;12.066;2023-02-28T13:22:39;6.80;99.90
40996;DHT22;26723;57.478;12.066;2023-02-28T13:25:53;7.10;99.90
40996;DHT22;26723;57.478;12.066;2023-02-28T13:29:04;7.10;99.90
40996;DHT22;26723;57.478;12.066;2023-02-28T13:32:34;7.00;99.90
40996;DHT22;26723;57.478;12.066;2023-02-28T13:35:44;6.80;99.90
40996;DHT22;26723;57.478;12.066;2023-02-28T13:38:54;6.50;99.90
40996;DHT22;26723;57.478;12.066;2023-02-28T13:42:32;6.40;99.90
40996;DHT22;26723;57.478;12.066;2023-02-28T13:46:05;6.50;99.90
40996;DHT22;26723;57.478;12.066;2023-02-28T13:49:23;6.70;99.90
40996;DHT22;26723;57.478;12.066;2023-02-28T13:52:34;6.80;99.90
40996;DHT22;26723;57.478;12.066;2023-02-28T13:56:01;6.90;99.90
40996;DHT22;26723;57.478;12.066;2023-02-28T13:59:22;7.20;99.90
40996;DHT22;26723;57.478;12.066;2023-02-28T14:02:52;7.30;99.90
40996;DHT22;26723;57.478;12.066;2023-02-28T14:06:21;7.30;99.90
40996;DHT22;26723;57.478;12.066;2023-02-28T14:09:33;7.30;99.90
40996;DHT22;26723;57.478;12.066;2023-02-28T14:13:00;7.30;99.90
40996;DHT22;26723;57.478;12.066;2023-02-28T14:16:09;7.10;99.90
40996;DHT22;26723;57.478;12.066;2023-02-28T14:19:23;7.00;99.90
40996;DHT22;26723;57.478;12.066;2023-02-28T14:22:50;7.00;99.90
40996;DHT22;26723;57.478;12.066;2023-02-28T14:26:06;7.00;99.90
40996;DHT22;26723;57.478;12.066;2023-02-28T14:33:03;6.80;99.90
40996;DHT22;26723;57.478;12.066;2023-02-28T14:36:20;6.60;99.90
40996;DHT22;26723;57.478;12.066;2023-02-28T14:39:31;6.60;99.90
40996;DHT22;26723;57.478;12.066;2023-02-28T14:42:45;6.50;99.90
40996;DHT22;26723;57.478;12.066;2023-02-28T14:45:56;6.40;99.90
40996;DHT22;26723;57.478;12.066;2023-02-28T14:49:06;6.50;99.90
40996;DHT22;26723;57.478;12.066;2023-02-28T14:52:17;6.40;99.90
40996;DHT22;26723;57.478;12.066;2023-02-28T14:55:30;6.20;99.90
40996;DHT22;26723;57.478;12.066;2023-02-28T14:58:39;6.10;99.90
40996;DHT22;26723;57.478;12.066;2023-02-28T15:01:47;6.00;99.90
40996;DHT22;26723;57.478;12.066;2023-02-28T15:04:57;5.90;99.90
40996;DHT22;26723;57.478;12.066;2023-02-28T15:08:12;5.80;99.90
40996;DHT22;26723;57.478;12.066;2023-02-28T15:11:22;5.70;99.90
40996;DHT22;26723;57.478;12.066;2023-02-28T15:14:31;5.70;99.90
40996;DHT22;26723;57.478;12.066;2023-02-28T15:17:40;5.70;99.90
40996;DHT22;26723;57.478;12.066;2023-02-28T15:20:51;5.60;99.90
40996;DHT22;26723;57.478;12.066;2023-02-28T15:24:03;5.50;99.90
40996;DHT22;26723;57.478;12.066;2023-02-28T15:27:16;5.50;99.90
40996;DHT22;26723;57.478;12.066;2023-02-28T15:30:29;5.40;99.90
40996;DHT22;26723;57.478;12.066;2023-02-28T15:33:52;5.20;99.90
40996;DHT22;26723;57.478;12.066;2023-02-28T15:37:01;5.00;99.90
40996;DHT22;26723;57.478;12.066;2023-02-28T15:43:28;4.70;99.90
40996;DHT22;26723;57.478;12.066;2023-02-28T15:46:36;4.60;99.90
40996;DHT22;26723;57.478;12.066;2023-02-28T15:49:47;4.60;99.90
40996;DHT22;26723;57.478;12.066;2023-02-28T15:52:55;4.60;99.90
40996;DHT22;26723;57.478;12.066;2023-02-28T15:56:06;4.60;99.90
40996;DHT22;26723;57.478;12.066;2023-02-28T15:59:20;4.60;99.90
40996;DHT22;26723;57.478;12.066;2023-02-28T16:02:32;4.40;99.90
40996;DHT22;26723;57.478;12.066;2023-02-28T16:05:41;4.40;99.90
40996;DHT22;26723;57.478;12.066;2023-02-28T16:08:50;4.30;99.90
40996;DHT22;26723;57.478;12.066;2023-02-28T16:12:01;4.20;99.90
40996;DHT22;26723;57.478;12.066;2023-02-28T16:15:18;4.10;99.90
40996;DHT22;26723;57.478;12.066;2023-02-28T16:18:27;4.00;99.90
40996;DHT22;26723;57.478;12.066;2023-02-28T16:21:35;3.90;99.90
40996;DHT22;26723;57.478;12.066;2023-02-28T16:24:44;3.70;99.90
40996;DHT22;26723;57.478;12.066;2023-02-28T16:27:53;3.60;99.90
40996;DHT22;26723;57.478;12.066;2023-02-28T16:31:05;3.40;99.90
40996;DHT22;26723;57.478;12.066;2023-02-28T16:34:14;3.30;99.90
40996;DHT22;26723;57.478;12.066;2023-02-28T16:37:24;3.20;99.90
40996;DHT22;26723;57.478;12.066;2023-02-28T16:40:34;3.20;99.90
40996;DHT22;26723;57.478;12.066;2023-02-28T16:43:45;3.10;99.90
40996;DHT22;26723;57.478;12.066;2023-02-28T16:46:55;3.00;99.90
40996;DHT22;26723;57.478;12.066;2023-02-28T16:50:08;3.00;99.90
40996;DHT22;26723;57.478;12.066;2023-02-28T16:53:17;2.80;99.90
40996;DHT22;26723;57.478;12.066;2023-02-28T16:56:26;2.80;99.90
40996;DHT22;26723;57.478;12.066;2023-02-28T16:59:34;2.60;99.90
40996;DHT22;26723;57.478;12.066;2023-02-28T17:02:44;2.60;99.90
40996;DHT22;26723;57.478;12.066;2023-02-28T17:06:01;2.50;99.90
40996;DHT22;26723;57.478;12.066;2023-02-28T17:09:15;2.30;99.90
40996;DHT22;26723;57.478;12.066;2023-02-28T17:12:24;2.30;99.90
40996;DHT22;26723;57.478;12.066;2023-02-28T17:15:32;2.20;99.90
40996;DHT22;26723;57.478;12.066;2023-02-28T17:18:41;2.10;99.90
40996;DHT22;26723;57.478;12.066;2023-02-28T17:21:50;2.10;99.90
40996;DHT22;26723;57.478;12.066;2023-02-28T17:24:59;2.00;99.90
40996;DHT22;26723;57.478;12.066;2023-02-28T17:28:09;1.90;99.90
40996;DHT22;26723;57.478;12.066;2023-02-28T17:31:20;1.80;99.90
40996;DHT22;26723;57.478;12.066;2023-02-28T17:34:28;1.80;99.90
40996;DHT22;26723;57.478;12.066;2023-02-28T17:37:38;1.80;99.90
40996;DHT22;26723;57.478;12.066;2023-02-28T17:40:47;1.60;99.90
40996;DHT22;26723;57.478;12.066;2023-02-28T17:43:56;1.60;99.90
40996;DHT22;26723;57.478;12.066;2023-02-28T17:47:04;1.60;99.90
40996;DHT22;26723;57.478;12.066;2023-02-28T17:50:14;1.60;99.90
40996;DHT22;26723;57.478;12.066;2023-02-28T17:53:24;1.50;99.90
40996;DHT22;26723;57.478;12.066;2023-02-28T17:56:34;1.40;99.90
40996;DHT22;26723;57.478;12.066;2023-02-28T17:59:42;1.20;99.90
40996;DHT22;26723;57.478;12.066;2023-02-28T18:02:51;1.20;99.90
40996;DHT22;26723;57.478;12.066;2023-02-28T18:06:00;1.10;99.90
40996;DHT22;26723;57.478;12.066;2023-02-28T18:09:10;1.00;99.90
40996;DHT22;26723;57.478;12.066;2023-02-28T18:12:19;1.00;99.90
40996;DHT22;26723;57.478;12.066;2023-02-28T18:15:27;0.90;99.90
40996;DHT22;26723;57.478;12.066;2023-02-28T18:18:36;0.90;99.90
40996;DHT22;26723;57.478;12.066;2023-02-28T18:21:46;0.90;99.90
40996;DHT22;26723;57.478;12.066;2023-02-28T18:24:56;0.90;99.90
40996;DHT22;26723;57.478;12.066;2023-02-28T18:28:05;1.00;99.90
40996;DHT22;26723;57.478;12.066;2023-02-28T18:31:15;0.90;99.90
40996;DHT22;26723;57.478;12.066;2023-02-28T18:34:24;0.80;99.90
40996;DHT22;26723;57.478;12.066;2023-02-28T18:37:34;0.80;99.90
40996;DHT22;26723;57.478;12.066;2023-02-28T18:40:51;0.80;99.90
40996;DHT22;26723;57.478;12.066;2023-02-28T18:44:00;0.60;99.90
40996;DHT22;26723;57.478;12.066;2023-02-28T18:47:24;0.60;99.90
40996;DHT22;26723;57.478;12.066;2023-02-28T18:50:36;0.60;99.90
40996;DHT22;26723;57.478;12.066;2023-02-28T18:53:45;0.70;99.90
40996;DHT22;26723;57.478;12.066;2023-02-28T18:56:55;0.70;99.90
40996;DHT22;26723;57.478;12.066;2023-02-28T19:00:04;0.60;99.90
40996;DHT22;26723;57.478;12.066;2023-02-28T19:03:15;0.60;99.90
40996;DHT22;26723;57.478;12.066;2023-02-28T19:06:24;0.50;99.90
40996;DHT22;26723;57.478;12.066;2023-02-28T19:09:33;0.50;99.90
40996;DHT22;26723;57.478;12.066;2023-02-28T19:12:42;0.40;99.90
40996;DHT22;26723;57.478;12.066;2023-02-28T19:16:00;0.40;99.90
40996;DHT22;26723;57.478;12.066;2023-02-28T19:19:09;0.40;99.90
40996;DHT22;26723;57.478;12.066;2023-02-28T19:22:17;0.40;99.90
40996;DHT22;26723;57.478;12.066;2023-02-28T19:25:26;0.40;99.90
40996;DHT22;26723;57.478;12.066;2023-02-28T19:28:36;0.30;99.90
40996;DHT22;26723;57.478;12.066;2023-02-28T19:31:44;0.30;99.90
40996;DHT22;26723;57.478;12.066;2023-02-28T19:34:53;0.30;99.90
40996;DHT22;26723;57.478;12.066;2023-02-28T19:38:01;0.30;99.90
40996;DHT22;26723;57.478;12.066;2023-02-28T19:41:11;0.30;99.90
40996;DHT22;26723;57.478;12.066;2023-02-28T19:44:21;0.20;99.90
40996;DHT22;26723;57.478;12.066;2023-02-28T19:47:30;0.20;99.90
40996;DHT22;26723;57.478;12.066;2023-02-28T19:50:38;0.20;99.90
40996;DHT22;26723;57.478;12.066;2023-02-28T19:53:47;0.10;99.90
40996;DHT22;26723;57.478;12.066;2023-02-28T19:56:56;0.00;99.90
40996;DHT22;26723;57.478;12.066;2023-02-28T20:00:07;0.00;99.90
40996;DHT22;26723;57.478;12.066;2023-02-28T20:03:19;-0.10;99.90
40996;DHT22;26723;57.478;12.066;2023-02-28T20:06:30;-0.10;99.90
40996;DHT22;26723;57.478;12.066;2023-02-28T20:09:39;-0.10;99.90
40996;DHT22;26723;57.478;12.066;2023-02-28T20:12:47;-0.10;99.90
40996;DHT22;26723;57.478;12.066;2023-02-28T20:15:59;-0.10;99.90
40996;DHT22;26723;57.478;12.066;2023-02-28T20:19:08;-0.10;99.90
40996;DHT22;26723;57.478;12.066;2023-02-28T20:22:16;-0.10;99.90
40996;DHT22;26723;57.478;12.066;2023-02-28T20:25:25;-0.10;99.90